sensor_id;sensor_type;location;lat;lon;timestamp;P1;durP1;ratioP1;P2;durP2;ratioP2
7665;SDS011;3875;46.562;4.898;2022-09-13T00:01:28;5.77;;;2.30;;
7665;SDS011;3875;46.562;4.898;2022-09-13T00:03:54;3.00;;;2.17;;
7665;SDS011;3875;46.562;4.898;2022-09-13T00:06:20;2.60;;;2.13;;
7665;SDS011;3875;46.562;4.898;2022-09-13T00:08:46;3.07;;;2.17;;
7665;SDS011;3875;46.562;4.898;2022-09-13T00:11:20;2.87;;;2.00;;
7665;SDS011;3875;46.562;4.898;2022-09-13T00:13:50;3.13;;;2.00;;
7665;SDS011;3875;46.562;4.898;2022-09-13T00:16:17;3.03;;;1.97;;
7665;SDS011;3875;46.562;4.898;2022-09-13T00:18:44;4.20;;;2.43;;
7665;SDS011;3875;46.562;4.898;2022-09-13T00:21:11;2.50;;;2.30;;
7665;SDS011;3875;46.562;4.898;2022-09-13T00:23:38;5.50;;;2.07;;
7665;SDS011;3875;46.562;4.898;2022-09-13T00:26:09;2.43;;;2.20;;
7665;SDS011;3875;46.562;4.898;2022-09-13T00:28:36;2.40;;;2.20;;
7665;SDS011;3875;46.562;4.898;2022-09-13T00:31:03;2.50;;;2.00;;
7665;SDS011;3875;46.562;4.898;2022-09-13T00:33:30;2.70;;;2.30;;
7665;SDS011;3875;46.562;4.898;2022-09-13T00:35:57;3.00;;;2.70;;
7665;SDS011;3875;46.562;4.898;2022-09-13T00:38:22;4.33;;;2.43;;
7665;SDS011;3875;46.562;4.898;2022-09-13T00:40:48;5.90;;;2.30;;
7665;SDS011;3875;46.562;4.898;2022-09-13T00:43:16;3.83;;;2.57;;
7665;SDS011;3875;46.562;4.898;2022-09-13T00:45:43;5.50;;;2.10;;
7665;SDS011;3875;46.562;4.898;2022-09-13T00:48:12;4.17;;;2.17;;
7665;SDS011;3875;46.562;4.898;2022-09-13T00:50:47;4.77;;;2.17;;
7665;SDS011;3875;46.562;4.898;2022-09-13T00:53:24;6.53;;;1.90;;
7665;SDS011;3875;46.562;4.898;2022-09-13T00:58:37;2.17;;;1.97;;
7665;SDS011;3875;46.562;4.898;2022-09-13T01:01:08;2.50;;;2.30;;
7665;SDS011;3875;46.562;4.898;2022-09-13T01:03:37;3.80;;;2.00;;
7665;SDS011;3875;46.562;4.898;2022-09-13T01:06:09;2.63;;;2.10;;
7665;SDS011;3875;46.562;4.898;2022-09-13T01:08:38;3.20;;;1.80;;
7665;SDS011;3875;46.562;4.898;2022-09-13T01:11:11;2.43;;;2.13;;
7665;SDS011;3875;46.562;4.898;2022-09-13T01:13:56;4.73;;;2.10;;
7665;SDS011;3875;46.562;4.898;2022-09-13T01:16:23;2.47;;;2.23;;
7665;SDS011;3875;46.562;4.898;2022-09-13T01:18:49;4.13;;;2.27;;
7665;SDS011;3875;46.562;4.898;2022-09-13T01:39:53;5.50;;;3.50;;
7665;SDS011;3875;46.562;4.898;2022-09-13T01:42:37;6.60;;;3.07;;
7665;SDS011;3875;46.562;4.898;2022-09-13T01:45:16;3.47;;;2.83;;
7665;SDS011;3875;46.562;4.898;2022-09-13T01:47:59;3.20;;;2.80;;
7665;SDS011;3875;46.562;4.898;2022-09-13T01:50:38;5.13;;;3.10;;
7665;SDS011;3875;46.562;4.898;2022-09-13T01:53:17;3.73;;;2.80;;
7665;SDS011;3875;46.562;4.898;2022-09-13T01:56:01;3.50;;;3.17;;
7665;SDS011;3875;46.562;4.898;2022-09-13T01:58:42;4.03;;;3.10;;
7665;SDS011;3875;46.562;4.898;2022-09-13T02:03:52;2.80;;;2.50;;
7665;SDS011;3875;46.562;4.898;2022-09-13T02:06:20;8.13;;;2.93;;
7665;SDS011;3875;46.562;4.898;2022-09-13T02:08:51;3.40;;;3.10;;
7665;SDS011;3875;46.562;4.898;2022-09-13T02:11:21;7.13;;;3.93;;
7665;SDS011;3875;46.562;4.898;2022-09-13T02:13:49;3.10;;;2.83;;
7665;SDS011;3875;46.562;4.898;2022-09-13T02:16:44;4.30;;;2.53;;
7665;SDS011;3875;46.562;4.898;2022-09-13T02:22:07;3.50;;;3.20;;
7665;SDS011;3875;46.562;4.898;2022-09-13T02:24:56;5.60;;;3.30;;
7665;SDS011;3875;46.562;4.898;2022-09-13T02:27:37;3.40;;;3.10;;
7665;SDS011;3875;46.562;4.898;2022-09-13T02:30:06;5.00;;;3.33;;
7665;SDS011;3875;46.562;4.898;2022-09-13T02:35:13;3.90;;;3.43;;
7665;SDS011;3875;46.562;4.898;2022-09-13T02:37:46;3.10;;;2.80;;
7665;SDS011;3875;46.562;4.898;2022-09-13T02:40:18;3.60;;;3.30;;
7665;SDS011;3875;46.562;4.898;2022-09-13T02:43:19;3.90;;;3.17;;
7665;SDS011;3875;46.562;4.898;2022-09-13T02:45:46;3.70;;;3.30;;
7665;SDS011;3875;46.562;4.898;2022-09-13T02:48:28;4.03;;;3.40;;
7665;SDS011;3875;46.562;4.898;2022-09-13T02:51:04;3.80;;;3.37;;
7665;SDS011;3875;46.562;4.898;2022-09-13T02:54:04;3.63;;;3.13;;
7665;SDS011;3875;46.562;4.898;2022-09-13T02:56:43;3.67;;;3.33;;
7665;SDS011;3875;46.562;4.898;2022-09-13T02:59:17;3.90;;;3.53;;
7665;SDS011;3875;46.562;4.898;2022-09-13T03:01:49;4.10;;;3.70;;
7665;SDS011;3875;46.562;4.898;2022-09-13T03:04:38;7.97;;;3.57;;
7665;SDS011;3875;46.562;4.898;2022-09-13T03:07:05;4.47;;;3.43;;
7665;SDS011;3875;46.562;4.898;2022-09-13T03:09:35;3.50;;;3.20;;
7665;SDS011;3875;46.562;4.898;2022-09-13T03:23:18;4.00;;;3.60;;
7665;SDS011;3875;46.562;4.898;2022-09-13T03:26:07;5.70;;;3.57;;
7665;SDS011;3875;46.562;4.898;2022-09-13T03:32:23;7.60;;;3.57;;
7665;SDS011;3875;46.562;4.898;2022-09-13T03:42:58;10.90;;;3.70;;
7665;SDS011;3875;46.562;4.898;2022-09-13T03:45:50;7.23;;;3.60;;
7665;SDS011;3875;46.562;4.898;2022-09-13T03:48:19;4.03;;;3.70;;
7665;SDS011;3875;46.562;4.898;2022-09-13T03:50:47;4.60;;;3.90;;
7665;SDS011;3875;46.562;4.898;2022-09-13T03:53:19;9.53;;;4.13;;
7665;SDS011;3875;46.562;4.898;2022-09-13T03:55:47;5.13;;;4.13;;
7665;SDS011;3875;46.562;4.898;2022-09-13T03:58:14;7.03;;;3.93;;
7665;SDS011;3875;46.562;4.898;2022-09-13T04:00:44;6.73;;;3.80;;
7665;SDS011;3875;46.562;4.898;2022-09-13T04:03:10;6.30;;;3.87;;
7665;SDS011;3875;46.562;4.898;2022-09-13T04:05:36;7.00;;;4.00;;
7665;SDS011;3875;46.562;4.898;2022-09-13T04:08:03;4.73;;;3.83;;
7665;SDS011;3875;46.562;4.898;2022-09-13T04:10:33;6.30;;;3.87;;
7665;SDS011;3875;46.562;4.898;2022-09-13T04:13:00;3.80;;;3.50;;
7665;SDS011;3875;46.562;4.898;2022-09-13T04:15:26;6.50;;;3.60;;
7665;SDS011;3875;46.562;4.898;2022-09-13T04:17:53;5.23;;;4.20;;
7665;SDS011;3875;46.562;4.898;2022-09-13T04:20:18;4.17;;;3.73;;
7665;SDS011;3875;46.562;4.898;2022-09-13T04:22:51;4.57;;;3.90;;
7665;SDS011;3875;46.562;4.898;2022-09-13T04:25:18;4.43;;;3.77;;
7665;SDS011;3875;46.562;4.898;2022-09-13T04:27:45;4.23;;;3.70;;
7665;SDS011;3875;46.562;4.898;2022-09-13T04:30:11;6.77;;;4.47;;
7665;SDS011;3875;46.562;4.898;2022-09-13T04:32:37;9.37;;;3.80;;
7665;SDS011;3875;46.562;4.898;2022-09-13T04:35:02;6.30;;;4.23;;
7665;SDS011;3875;46.562;4.898;2022-09-13T04:37:28;4.67;;;3.73;;
7665;SDS011;3875;46.562;4.898;2022-09-13T04:39:54;5.07;;;4.10;;
7665;SDS011;3875;46.562;4.898;2022-09-13T04:42:20;5.10;;;4.30;;
7665;SDS011;3875;46.562;4.898;2022-09-13T04:44:45;6.10;;;4.10;;
7665;SDS011;3875;46.562;4.898;2022-09-13T04:47:13;7.47;;;4.40;;
7665;SDS011;3875;46.562;4.898;2022-09-13T04:49:39;8.67;;;4.77;;
7665;SDS011;3875;46.562;4.898;2022-09-13T04:52:05;6.67;;;4.07;;
7665;SDS011;3875;46.562;4.898;2022-09-13T04:54:30;4.63;;;4.23;;
7665;SDS011;3875;46.562;4.898;2022-09-13T04:56:56;6.23;;;4.43;;
7665;SDS011;3875;46.562;4.898;2022-09-13T04:59:22;4.40;;;3.97;;
7665;SDS011;3875;46.562;4.898;2022-09-13T05:01:47;5.37;;;4.13;;
7665;SDS011;3875;46.562;4.898;2022-09-13T05:04:13;7.73;;;4.30;;
7665;SDS011;3875;46.562;4.898;2022-09-13T05:06:39;6.00;;;3.90;;
7665;SDS011;3875;46.562;4.898;2022-09-13T05:09:04;6.53;;;4.57;;
7665;SDS011;3875;46.562;4.898;2022-09-13T05:11:31;4.47;;;4.07;;
7665;SDS011;3875;46.562;4.898;2022-09-13T05:13:57;4.57;;;4.17;;
7665;SDS011;3875;46.562;4.898;2022-09-13T05:16:28;5.13;;;4.40;;
7665;SDS011;3875;46.562;4.898;2022-09-13T05:18:55;7.10;;;4.50;;
7665;SDS011;3875;46.562;4.898;2022-09-13T05:21:22;5.10;;;4.10;;
7665;SDS011;3875;46.562;4.898;2022-09-13T05:23:51;4.80;;;4.40;;
7665;SDS011;3875;46.562;4.898;2022-09-13T05:26:18;5.27;;;4.77;;
7665;SDS011;3875;46.562;4.898;2022-09-13T05:28:44;6.57;;;4.43;;
7665;SDS011;3875;46.562;4.898;2022-09-13T05:31:21;6.07;;;4.60;;
7665;SDS011;3875;46.562;4.898;2022-09-13T05:33:56;4.40;;;3.97;;
7665;SDS011;3875;46.562;4.898;2022-09-13T05:36:24;6.30;;;4.43;;
7665;SDS011;3875;46.562;4.898;2022-09-13T05:38:51;6.70;;;4.00;;
7665;SDS011;3875;46.562;4.898;2022-09-13T05:41:18;6.83;;;4.50;;
7665;SDS011;3875;46.562;4.898;2022-09-13T05:43:44;4.97;;;4.37;;
7665;SDS011;3875;46.562;4.898;2022-09-13T05:46:10;7.10;;;4.73;;
7665;SDS011;3875;46.562;4.898;2022-09-13T05:48:37;4.97;;;4.30;;
7665;SDS011;3875;46.562;4.898;2022-09-13T05:53:34;5.27;;;4.53;;
7665;SDS011;3875;46.562;4.898;2022-09-13T05:56:05;5.30;;;4.53;;
7665;SDS011;3875;46.562;4.898;2022-09-13T05:58:51;6.87;;;4.77;;
7665;SDS011;3875;46.562;4.898;2022-09-13T06:01:18;4.87;;;4.43;;
7665;SDS011;3875;46.562;4.898;2022-09-13T06:03:46;6.10;;;4.87;;
7665;SDS011;3875;46.562;4.898;2022-09-13T06:06:13;5.70;;;4.10;;
7665;SDS011;3875;46.562;4.898;2022-09-13T06:08:39;4.97;;;4.37;;
7665;SDS011;3875;46.562;4.898;2022-09-13T06:11:07;4.60;;;4.30;;
7665;SDS011;3875;46.562;4.898;2022-09-13T06:13:34;4.33;;;3.93;;
7665;SDS011;3875;46.562;4.898;2022-09-13T06:16:01;4.67;;;3.97;;
7665;SDS011;3875;46.562;4.898;2022-09-13T06:18:29;7.13;;;4.57;;
7665;SDS011;3875;46.562;4.898;2022-09-13T06:21:00;4.87;;;4.30;;
7665;SDS011;3875;46.562;4.898;2022-09-13T06:23:27;5.77;;;4.30;;
7665;SDS011;3875;46.562;4.898;2022-09-13T06:26:07;7.43;;;4.33;;
7665;SDS011;3875;46.562;4.898;2022-09-13T06:28:34;5.27;;;4.77;;
7665;SDS011;3875;46.562;4.898;2022-09-13T06:31:05;5.00;;;4.30;;
7665;SDS011;3875;46.562;4.898;2022-09-13T06:33:33;5.23;;;4.50;;
7665;SDS011;3875;46.562;4.898;2022-09-13T06:36:00;6.17;;;4.40;;
7665;SDS011;3875;46.562;4.898;2022-09-13T06:38:32;8.30;;;4.20;;
7665;SDS011;3875;46.562;4.898;2022-09-13T06:41:08;5.83;;;4.57;;
7665;SDS011;3875;46.562;4.898;2022-09-13T06:43:39;5.73;;;4.60;;
7665;SDS011;3875;46.562;4.898;2022-09-13T06:46:09;4.90;;;4.50;;
7665;SDS011;3875;46.562;4.898;2022-09-13T06:48:37;6.70;;;4.33;;
7665;SDS011;3875;46.562;4.898;2022-09-13T06:51:06;4.37;;;3.97;;
7665;SDS011;3875;46.562;4.898;2022-09-13T06:53:34;4.40;;;4.00;;
7665;SDS011;3875;46.562;4.898;2022-09-13T06:56:07;6.77;;;4.73;;
7665;SDS011;3875;46.562;4.898;2022-09-13T06:58:36;8.17;;;4.50;;
7665;SDS011;3875;46.562;4.898;2022-09-13T07:03:35;6.77;;;4.50;;
7665;SDS011;3875;46.562;4.898;2022-09-13T07:06:06;6.10;;;4.63;;
7665;SDS011;3875;46.562;4.898;2022-09-13T07:08:36;5.50;;;3.93;;
7665;SDS011;3875;46.562;4.898;2022-09-13T07:11:02;4.57;;;4.17;;
7665;SDS011;3875;46.562;4.898;2022-09-13T07:13:28;5.60;;;4.40;;
7665;SDS011;3875;46.562;4.898;2022-09-13T07:15:54;4.93;;;4.47;;
7665;SDS011;3875;46.562;4.898;2022-09-13T07:18:20;4.93;;;4.30;;
7665;SDS011;3875;46.562;4.898;2022-09-13T07:20:46;5.23;;;4.07;;
7665;SDS011;3875;46.562;4.898;2022-09-13T07:23:11;5.30;;;4.10;;
7665;SDS011;3875;46.562;4.898;2022-09-13T07:25:38;6.03;;;4.23;;
7665;SDS011;3875;46.562;4.898;2022-09-13T07:28:03;4.43;;;4.03;;
7665;SDS011;3875;46.562;4.898;2022-09-13T07:30:29;5.40;;;3.80;;
7665;SDS011;3875;46.562;4.898;2022-09-13T07:32:54;4.57;;;4.17;;
7665;SDS011;3875;46.562;4.898;2022-09-13T07:35:20;4.57;;;4.13;;
7665;SDS011;3875;46.562;4.898;2022-09-13T07:37:46;5.13;;;4.50;;
7665;SDS011;3875;46.562;4.898;2022-09-13T07:40:12;6.53;;;4.10;;
7665;SDS011;3875;46.562;4.898;2022-09-13T07:42:37;5.43;;;3.90;;
7665;SDS011;3875;46.562;4.898;2022-09-13T07:45:03;5.63;;;4.67;;
7665;SDS011;3875;46.562;4.898;2022-09-13T07:47:31;4.73;;;4.20;;
7665;SDS011;3875;46.562;4.898;2022-09-13T07:49:57;4.00;;;3.70;;
7665;SDS011;3875;46.562;4.898;2022-09-13T07:52:23;4.83;;;4.33;;
7665;SDS011;3875;46.562;4.898;2022-09-13T07:54:49;4.90;;;4.40;;
7665;SDS011;3875;46.562;4.898;2022-09-13T07:57:14;6.27;;;3.57;;
7665;SDS011;3875;46.562;4.898;2022-09-13T07:59:40;8.77;;;3.93;;
7665;SDS011;3875;46.562;4.898;2022-09-13T08:02:07;5.20;;;4.00;;
7665;SDS011;3875;46.562;4.898;2022-09-13T08:04:33;5.50;;;3.80;;
7665;SDS011;3875;46.562;4.898;2022-09-13T08:06:59;4.40;;;3.97;;
7665;SDS011;3875;46.562;4.898;2022-09-13T08:09:25;4.60;;;4.20;;
7665;SDS011;3875;46.562;4.898;2022-09-13T08:11:51;4.27;;;3.67;;
7665;SDS011;3875;46.562;4.898;2022-09-13T08:14:17;3.67;;;3.37;;
7665;SDS011;3875;46.562;4.898;2022-09-13T08:16:44;4.53;;;3.73;;
7665;SDS011;3875;46.562;4.898;2022-09-13T08:19:11;4.07;;;3.70;;
7665;SDS011;3875;46.562;4.898;2022-09-13T08:21:39;3.83;;;3.53;;
7665;SDS011;3875;46.562;4.898;2022-09-13T08:24:07;4.80;;;3.80;;
7665;SDS011;3875;46.562;4.898;2022-09-13T08:26:37;4.73;;;3.83;;
7665;SDS011;3875;46.562;4.898;2022-09-13T08:29:04;4.67;;;3.50;;
7665;SDS011;3875;46.562;4.898;2022-09-13T08:31:31;3.57;;;3.20;;
7665;SDS011;3875;46.562;4.898;2022-09-13T08:33:58;5.47;;;3.43;;
7665;SDS011;3875;46.562;4.898;2022-09-13T08:36:24;5.07;;;3.40;;
7665;SDS011;3875;46.562;4.898;2022-09-13T08:38:52;8.93;;;3.70;;
7665;SDS011;3875;46.562;4.898;2022-09-13T08:41:44;5.53;;;3.60;;
7665;SDS011;3875;46.562;4.898;2022-09-13T08:44:27;6.33;;;3.40;;
7665;SDS011;3875;46.562;4.898;2022-09-13T08:46:59;3.63;;;3.33;;
7665;SDS011;3875;46.562;4.898;2022-09-13T08:49:38;7.17;;;3.70;;
7665;SDS011;3875;46.562;4.898;2022-09-13T08:52:15;8.23;;;3.97;;
7665;SDS011;3875;46.562;4.898;2022-09-13T08:54:44;6.87;;;4.03;;
7665;SDS011;3875;46.562;4.898;2022-09-13T09:05:16;3.63;;;3.10;;
7665;SDS011;3875;46.562;4.898;2022-09-13T09:07:47;6.13;;;3.67;;
7665;SDS011;3875;46.562;4.898;2022-09-13T09:10:20;3.93;;;3.30;;
7665;SDS011;3875;46.562;4.898;2022-09-13T09:15:44;4.27;;;3.30;;
7665;SDS011;3875;46.562;4.898;2022-09-13T09:18:23;3.80;;;3.20;;
7665;SDS011;3875;46.562;4.898;2022-09-13T09:20:54;5.33;;;3.10;;
7665;SDS011;3875;46.562;4.898;2022-09-13T09:23:25;5.47;;;3.23;;
7665;SDS011;3875;46.562;4.898;2022-09-13T09:25:56;7.80;;;3.27;;
7665;SDS011;3875;46.562;4.898;2022-09-13T09:28:36;3.67;;;3.37;;
7665;SDS011;3875;46.562;4.898;2022-09-13T09:36:34;3.07;;;2.87;;
7665;SDS011;3875;46.562;4.898;2022-09-13T09:39:04;5.97;;;2.97;;
7665;SDS011;3875;46.562;4.898;2022-09-13T09:41:34;4.43;;;3.20;;
7665;SDS011;3875;46.562;4.898;2022-09-13T09:44:13;5.03;;;2.93;;
7665;SDS011;3875;46.562;4.898;2022-09-13T09:46:54;3.83;;;3.20;;
7665;SDS011;3875;46.562;4.898;2022-09-13T09:55:51;4.00;;;3.47;;
7665;SDS011;3875;46.562;4.898;2022-09-13T09:58:38;4.80;;;3.17;;
7665;SDS011;3875;46.562;4.898;2022-09-13T10:06:32;5.83;;;2.97;;
7665;SDS011;3875;46.562;4.898;2022-09-13T10:14:26;5.90;;;3.13;;
7665;SDS011;3875;46.562;4.898;2022-09-13T10:22:16;4.10;;;3.40;;
7665;SDS011;3875;46.562;4.898;2022-09-13T10:24:43;4.30;;;3.10;;
7665;SDS011;3875;46.562;4.898;2022-09-13T10:29:57;4.73;;;3.10;;
7665;SDS011;3875;46.562;4.898;2022-09-13T10:32:25;3.40;;;3.10;;
7665;SDS011;3875;46.562;4.898;2022-09-13T10:34:52;4.77;;;3.00;;
7665;SDS011;3875;46.562;4.898;2022-09-13T10:37:21;7.17;;;3.03;;
7665;SDS011;3875;46.562;4.898;2022-09-13T10:42:33;7.20;;;3.10;;
7665;SDS011;3875;46.562;4.898;2022-09-13T10:45:01;3.97;;;2.67;;
7665;SDS011;3875;46.562;4.898;2022-09-13T10:47:48;4.53;;;2.90;;
7665;SDS011;3875;46.562;4.898;2022-09-13T10:50:20;3.27;;;2.57;;
7665;SDS011;3875;46.562;4.898;2022-09-13T10:52:50;3.20;;;2.90;;
7665;SDS011;3875;46.562;4.898;2022-09-13T10:57:42;4.05;;;2.63;;
7665;SDS011;3875;46.562;4.898;2022-09-13T11:19:19;3.22;;;2.30;;
7665;SDS011;3875;46.562;4.898;2022-09-13T11:22:15;4.60;;;2.65;;
7665;SDS011;3875;46.562;4.898;2022-09-13T11:30:22;3.40;;;2.30;;
7665;SDS011;3875;46.562;4.898;2022-09-13T11:33:00;4.78;;;2.50;;
7665;SDS011;3875;46.562;4.898;2022-09-13T11:46:09;2.85;;;2.60;;
7665;SDS011;3875;46.562;4.898;2022-09-13T11:49:02;3.00;;;2.70;;
7665;SDS011;3875;46.562;4.898;2022-09-13T11:55:33;5.97;;;2.45;;
7665;SDS011;3875;46.562;4.898;2022-09-13T11:58:24;8.40;;;2.55;;
7665;SDS011;3875;46.562;4.898;2022-09-13T12:00:58;4.28;;;2.60;;
7665;SDS011;3875;46.562;4.898;2022-09-13T12:03:29;3.70;;;2.55;;
7665;SDS011;3875;46.562;4.898;2022-09-13T12:06:29;3.50;;;2.50;;
7665;SDS011;3875;46.562;4.898;2022-09-13T12:09:02;2.70;;;2.30;;
7665;SDS011;3875;46.562;4.898;2022-09-13T12:11:33;6.35;;;2.60;;
7665;SDS011;3875;46.562;4.898;2022-09-13T12:14:04;4.03;;;2.63;;
7665;SDS011;3875;46.562;4.898;2022-09-13T12:16:45;8.68;;;2.53;;
7665;SDS011;3875;46.562;4.898;2022-09-13T12:22:10;3.40;;;2.88;;
7665;SDS011;3875;46.562;4.898;2022-09-13T12:24:51;3.63;;;2.83;;
7665;SDS011;3875;46.562;4.898;2022-09-13T12:30:20;3.88;;;3.47;;
7665;SDS011;3875;46.562;4.898;2022-09-13T12:32:47;5.90;;;2.70;;
7665;SDS011;3875;46.562;4.898;2022-09-13T12:35:16;3.67;;;2.50;;
7665;SDS011;3875;46.562;4.898;2022-09-13T12:43:03;2.78;;;2.38;;
7665;SDS011;3875;46.562;4.898;2022-09-13T12:45:45;3.70;;;2.92;;
7665;SDS011;3875;46.562;4.898;2022-09-13T12:51:29;4.63;;;2.60;;
7665;SDS011;3875;46.562;4.898;2022-09-13T13:00:18;3.53;;;2.53;;
7665;SDS011;3875;46.562;4.898;2022-09-13T13:03:03;3.72;;;2.90;;
7665;SDS011;3875;46.562;4.898;2022-09-13T13:05:46;6.47;;;2.75;;
7665;SDS011;3875;46.562;4.898;2022-09-13T13:10:44;3.00;;;2.30;;
7665;SDS011;3875;46.562;4.898;2022-09-13T13:18:57;4.90;;;3.00;;
7665;SDS011;3875;46.562;4.898;2022-09-13T13:21:38;3.83;;;2.63;;
7665;SDS011;3875;46.562;4.898;2022-09-13T13:26:52;2.97;;;2.70;;
7665;SDS011;3875;46.562;4.898;2022-09-13T13:29:23;3.72;;;3.35;;
7665;SDS011;3875;46.562;4.898;2022-09-13T13:36:50;5.72;;;3.78;;
7665;SDS011;3875;46.562;4.898;2022-09-13T13:41:56;7.55;;;3.50;;
7665;SDS011;3875;46.562;4.898;2022-09-13T13:46:50;4.00;;;3.17;;
7665;SDS011;3875;46.562;4.898;2022-09-13T13:50:18;4.88;;;3.10;;
7665;SDS011;3875;46.562;4.898;2022-09-13T13:54:58;5.82;;;3.10;;
7665;SDS011;3875;46.562;4.898;2022-09-13T13:57:38;5.88;;;3.00;;
7665;SDS011;3875;46.562;4.898;2022-09-13T14:00:18;5.13;;;2.70;;
7665;SDS011;3875;46.562;4.898;2022-09-13T14:13:16;8.75;;;2.30;;
7665;SDS011;3875;46.562;4.898;2022-09-13T14:19:26;5.30;;;2.47;;
7665;SDS011;3875;46.562;4.898;2022-09-13T14:24:48;5.13;;;1.90;;
7665;SDS011;3875;46.562;4.898;2022-09-13T14:27:25;5.43;;;2.20;;
7665;SDS011;3875;46.562;4.898;2022-09-13T14:29:59;2.70;;;2.50;;
7665;SDS011;3875;46.562;4.898;2022-09-13T14:32:29;2.50;;;2.30;;
7665;SDS011;3875;46.562;4.898;2022-09-13T14:35:05;6.13;;;2.58;;
7665;SDS011;3875;46.562;4.898;2022-09-13T14:37:45;6.30;;;2.92;;
7665;SDS011;3875;46.562;4.898;2022-09-13T14:40:18;6.55;;;2.60;;
7665;SDS011;3875;46.562;4.898;2022-09-13T14:42:52;3.60;;;2.28;;
7665;SDS011;3875;46.562;4.898;2022-09-13T14:45:19;5.20;;;2.40;;
7665;SDS011;3875;46.562;4.898;2022-09-13T14:50:47;4.47;;;2.17;;
7665;SDS011;3875;46.562;4.898;2022-09-13T14:53:23;5.13;;;2.70;;
7665;SDS011;3875;46.562;4.898;2022-09-13T14:56:06;3.33;;;2.15;;
7665;SDS011;3875;46.562;4.898;2022-09-13T15:01:13;4.18;;;2.38;;
7665;SDS011;3875;46.562;4.898;2022-09-13T15:03:45;5.20;;;2.15;;
7665;SDS011;3875;46.562;4.898;2022-09-13T15:06:25;4.22;;;2.28;;
7665;SDS011;3875;46.562;4.898;2022-09-13T15:08:59;3.13;;;2.50;;
7665;SDS011;3875;46.562;4.898;2022-09-13T15:14:26;4.40;;;2.08;;
7665;SDS011;3875;46.562;4.898;2022-09-13T15:19:30;2.58;;;2.38;;
7665;SDS011;3875;46.562;4.898;2022-09-13T15:22:10;7.72;;;2.53;;
7665;SDS011;3875;46.562;4.898;2022-09-13T15:24:41;4.40;;;2.30;;
7665;SDS011;3875;46.562;4.898;2022-09-13T15:27:17;2.40;;;2.20;;
7665;SDS011;3875;46.562;4.898;2022-09-13T15:29:48;4.85;;;2.55;;
7665;SDS011;3875;46.562;4.898;2022-09-13T15:37:42;5.88;;;2.42;;
7665;SDS011;3875;46.562;4.898;2022-09-13T15:40:29;5.35;;;2.90;;
7665;SDS011;3875;46.562;4.898;2022-09-13T15:43:07;6.78;;;2.53;;
7665;SDS011;3875;46.562;4.898;2022-09-13T15:45:33;5.57;;;2.58;;
7665;SDS011;3875;46.562;4.898;2022-09-13T15:47:58;2.55;;;2.15;;
7665;SDS011;3875;46.562;4.898;2022-09-13T15:50:25;4.25;;;2.40;;
7665;SDS011;3875;46.562;4.898;2022-09-13T15:52:54;4.47;;;2.58;;
7665;SDS011;3875;46.562;4.898;2022-09-13T15:55:21;2.85;;;2.30;;
7665;SDS011;3875;46.562;4.898;2022-09-13T15:57:47;6.55;;;2.83;;
7665;SDS011;3875;46.562;4.898;2022-09-13T16:00:18;5.22;;;2.65;;
7665;SDS011;3875;46.562;4.898;2022-09-13T16:02:49;3.83;;;2.75;;
7665;SDS011;3875;46.562;4.898;2022-09-13T16:05:15;11.35;;;2.70;;
7665;SDS011;3875;46.562;4.898;2022-09-13T16:07:42;6.75;;;2.90;;
7665;SDS011;3875;46.562;4.898;2022-09-13T16:10:26;4.15;;;3.03;;
7665;SDS011;3875;46.562;4.898;2022-09-13T16:12:52;6.43;;;2.42;;
7665;SDS011;3875;46.562;4.898;2022-09-13T16:15:18;4.20;;;2.83;;
7665;SDS011;3875;46.562;4.898;2022-09-13T16:17:44;7.05;;;2.70;;
7665;SDS011;3875;46.562;4.898;2022-09-13T16:20:13;4.88;;;2.30;;
7665;SDS011;3875;46.562;4.898;2022-09-13T16:22:42;4.30;;;2.50;;
7665;SDS011;3875;46.562;4.898;2022-09-13T16:25:10;5.20;;;2.60;;
7665;SDS011;3875;46.562;4.898;2022-09-13T16:27:37;7.10;;;2.63;;
7665;SDS011;3875;46.562;4.898;2022-09-13T16:30:03;5.10;;;2.60;;
7665;SDS011;3875;46.562;4.898;2022-09-13T16:32:30;8.57;;;3.15;;
7665;SDS011;3875;46.562;4.898;2022-09-13T16:34:56;5.30;;;2.43;;
7665;SDS011;3875;46.562;4.898;2022-09-13T16:37:22;4.40;;;2.40;;
7665;SDS011;3875;46.562;4.898;2022-09-13T16:39:48;6.00;;;2.45;;
7665;SDS011;3875;46.562;4.898;2022-09-13T16:42:14;4.55;;;2.40;;
7665;SDS011;3875;46.562;4.898;2022-09-13T16:44:41;5.60;;;2.50;;
7665;SDS011;3875;46.562;4.898;2022-09-13T16:47:08;2.92;;;2.42;;
7665;SDS011;3875;46.562;4.898;2022-09-13T16:49:34;4.40;;;2.42;;
7665;SDS011;3875;46.562;4.898;2022-09-13T16:52:00;7.10;;;2.55;;
7665;SDS011;3875;46.562;4.898;2022-09-13T16:54:27;6.53;;;2.90;;
7665;SDS011;3875;46.562;4.898;2022-09-13T16:56:59;6.63;;;2.57;;
7665;SDS011;3875;46.562;4.898;2022-09-13T16:59:26;5.38;;;2.88;;
7665;SDS011;3875;46.562;4.898;2022-09-13T17:01:52;2.38;;;2.13;;
7665;SDS011;3875;46.562;4.898;2022-09-13T17:04:17;5.53;;;2.83;;
7665;SDS011;3875;46.562;4.898;2022-09-13T17:06:43;6.15;;;2.83;;
7665;SDS011;3875;46.562;4.898;2022-09-13T17:09:09;6.57;;;2.37;;
7665;SDS011;3875;46.562;4.898;2022-09-13T17:11:36;6.63;;;2.87;;
7665;SDS011;3875;46.562;4.898;2022-09-13T17:14:05;2.87;;;2.40;;
7665;SDS011;3875;46.562;4.898;2022-09-13T17:16:36;4.00;;;2.30;;
7665;SDS011;3875;46.562;4.898;2022-09-13T17:19:05;3.00;;;2.70;;
7665;SDS011;3875;46.562;4.898;2022-09-13T17:21:33;6.65;;;2.53;;
7665;SDS011;3875;46.562;4.898;2022-09-13T17:23:59;5.47;;;2.83;;
7665;SDS011;3875;46.562;4.898;2022-09-13T17:26:25;7.27;;;2.47;;
7665;SDS011;3875;46.562;4.898;2022-09-13T17:28:51;5.63;;;2.40;;
7665;SDS011;3875;46.562;4.898;2022-09-13T17:31:17;4.13;;;2.40;;
7665;SDS011;3875;46.562;4.898;2022-09-13T17:33:43;3.20;;;2.50;;
7665;SDS011;3875;46.562;4.898;2022-09-13T17:36:10;7.83;;;2.80;;
7665;SDS011;3875;46.562;4.898;2022-09-13T17:38:37;5.60;;;2.70;;
7665;SDS011;3875;46.562;4.898;2022-09-13T17:43:32;10.33;;;2.67;;
7665;SDS011;3875;46.562;4.898;2022-09-13T17:46:02;5.77;;;2.40;;
7665;SDS011;3875;46.562;4.898;2022-09-13T17:48:29;4.33;;;2.40;;
7665;SDS011;3875;46.562;4.898;2022-09-13T17:50:59;2.30;;;2.10;;
7665;SDS011;3875;46.562;4.898;2022-09-13T17:53:29;7.43;;;2.77;;
7665;SDS011;3875;46.562;4.898;2022-09-13T17:55:55;3.83;;;2.20;;
7665;SDS011;3875;46.562;4.898;2022-09-13T17:58:24;3.30;;;2.63;;
7665;SDS011;3875;46.562;4.898;2022-09-13T18:00:58;5.77;;;2.37;;
7665;SDS011;3875;46.562;4.898;2022-09-13T18:03:25;4.80;;;2.90;;
7665;SDS011;3875;46.562;4.898;2022-09-13T18:05:55;7.70;;;2.80;;
7665;SDS011;3875;46.562;4.898;2022-09-13T18:08:21;4.63;;;2.83;;
7665;SDS011;3875;46.562;4.898;2022-09-13T18:10:48;5.37;;;2.60;;
7665;SDS011;3875;46.562;4.898;2022-09-13T18:13:13;5.63;;;2.70;;
7665;SDS011;3875;46.562;4.898;2022-09-13T18:15:42;4.43;;;2.80;;
7665;SDS011;3875;46.562;4.898;2022-09-13T18:18:12;2.73;;;2.47;;
7665;SDS011;3875;46.562;4.898;2022-09-13T18:20:43;4.03;;;2.60;;
7665;SDS011;3875;46.562;4.898;2022-09-13T18:23:10;3.57;;;2.40;;
7665;SDS011;3875;46.562;4.898;2022-09-13T18:25:36;5.27;;;2.70;;
7665;SDS011;3875;46.562;4.898;2022-09-13T18:28:02;5.30;;;3.03;;
7665;SDS011;3875;46.562;4.898;2022-09-13T18:30:28;5.27;;;2.97;;
7665;SDS011;3875;46.562;4.898;2022-09-13T18:32:53;3.43;;;2.50;;
7665;SDS011;3875;46.562;4.898;2022-09-13T18:35:19;3.03;;;2.60;;
7665;SDS011;3875;46.562;4.898;2022-09-13T18:37:45;3.00;;;2.33;;
7665;SDS011;3875;46.562;4.898;2022-09-13T18:40:11;4.53;;;2.40;;
7665;SDS011;3875;46.562;4.898;2022-09-13T18:42:41;7.73;;;2.70;;
7665;SDS011;3875;46.562;4.898;2022-09-13T18:45:07;3.70;;;2.60;;
7665;SDS011;3875;46.562;4.898;2022-09-13T18:47:33;5.20;;;2.90;;
7665;SDS011;3875;46.562;4.898;2022-09-13T18:49:59;6.27;;;2.73;;
7665;SDS011;3875;46.562;4.898;2022-09-13T18:52:26;3.00;;;2.40;;
7665;SDS011;3875;46.562;4.898;2022-09-13T18:54:52;5.13;;;2.93;;
7665;SDS011;3875;46.562;4.898;2022-09-13T18:57:18;3.00;;;2.70;;
7665;SDS011;3875;46.562;4.898;2022-09-13T18:59:43;8.07;;;3.00;;
7665;SDS011;3875;46.562;4.898;2022-09-13T19:02:09;5.40;;;2.60;;
7665;SDS011;3875;46.562;4.898;2022-09-13T19:04:35;6.73;;;3.30;;
7665;SDS011;3875;46.562;4.898;2022-09-13T19:07:02;4.33;;;2.80;;
7665;SDS011;3875;46.562;4.898;2022-09-13T19:09:31;4.73;;;2.83;;
7665;SDS011;3875;46.562;4.898;2022-09-13T19:11:58;8.60;;;2.73;;
7665;SDS011;3875;46.562;4.898;2022-09-13T19:14:25;8.03;;;3.00;;
7665;SDS011;3875;46.562;4.898;2022-09-13T19:16:53;3.30;;;2.57;;
7665;SDS011;3875;46.562;4.898;2022-09-13T19:19:21;3.73;;;2.50;;